createdAt,value
2022-11-26T00:00:50.794Z,4.44
2022-11-26T00:03:34.880Z,4.45
2022-11-26T00:06:17.024Z,4.44
2022-11-26T00:08:49.712Z,4.41
2022-11-26T00:11:22.378Z,4.38
2022-11-26T00:13:54.977Z,4.36
2022-11-26T00:16:27.989Z,4.36
2022-11-26T00:19:00.711Z,4.37
2022-11-26T00:21:35.048Z,4.38
2022-11-26T00:24:13.353Z,4.36
2022-11-26T00:26:45.876Z,4.35
2022-11-26T00:29:18.403Z,4.33
2022-11-26T00:31:51.057Z,4.31
2022-11-26T00:34:23.611Z,4.30
2022-11-26T00:36:56.230Z,4.29
2022-11-26T00:39:28.878Z,4.29
2022-11-26T00:42:01.505Z,4.30
2022-11-26T00:44:34.957Z,4.31
2022-11-26T00:47:07.782Z,4.33
2022-11-26T00:49:40.417Z,4.34
2022-11-26T00:52:34.985Z,4.35
2022-11-26T00:55:12.287Z,4.34
2022-11-26T00:57:45.117Z,4.33
2022-11-26T01:00:20.993Z,4.33
2022-11-26T01:02:54.249Z,4.32
2022-11-26T01:05:30.671Z,4.33
2022-11-26T01:08:19.665Z,4.35
2022-11-26T01:10:52.201Z,4.37
2022-11-26T01:13:24.812Z,4.40
2022-11-26T01:15:59.773Z,4.43
2022-11-26T01:18:37.067Z,4.46
2022-11-26T01:21:12.606Z,4.48
2022-11-26T01:23:45.552Z,4.51
2022-11-26T01:26:20.645Z,4.53
2022-11-26T01:28:53.337Z,4.56
2022-11-26T01:31:27.971Z,4.57
2022-11-26T01:34:00.456Z,4.59
2022-11-26T01:36:37.093Z,4.62
2022-11-26T01:39:15.310Z,4.64
2022-11-26T01:41:53.423Z,4.66
2022-11-26T01:44:28.541Z,4.65
2022-11-26T01:47:02.753Z,4.65
2022-11-26T01:49:36.248Z,4.65
2022-11-26T01:52:14.471Z,4.66
2022-11-26T01:54:48.231Z,4.67
2022-11-26T01:57:26.681Z,4.68
2022-11-26T02:00:02.568Z,4.68
2022-11-26T02:02:35.148Z,4.69
2022-11-26T02:05:13.774Z,4.71
2022-11-26T02:07:46.604Z,4.68
2022-11-26T02:10:18.917Z,4.65
2022-11-26T02:12:52.484Z,4.64
2022-11-26T02:15:29.120Z,4.63
2022-11-26T02:18:06.496Z,4.63
2022-11-26T02:20:49.565Z,4.62
2022-11-26T02:23:46.748Z,4.59
2022-11-26T02:26:45.928Z,4.59
2022-11-26T02:29:25.074Z,4.58
2022-11-26T02:32:01.859Z,4.60
2022-11-26T02:34:40.976Z,4.62
2022-11-26T02:37:17.951Z,4.63
2022-11-26T02:39:50.741Z,4.65
2022-11-26T02:42:27.876Z,4.66
2022-11-26T02:45:05.007Z,4.65
2022-11-26T02:47:39.729Z,4.68
2022-11-26T02:50:18.659Z,4.71
2022-11-26T02:52:54.501Z,4.74
2022-11-26T02:55:31.246Z,4.76
2022-11-26T02:58:04.464Z,4.79
2022-11-26T03:00:41.049Z,4.82
2022-11-26T03:03:23.199Z,4.85
2022-11-26T03:05:59.049Z,4.88
2022-11-26T03:08:32.384Z,4.90
2022-11-26T03:11:05.040Z,4.91
2022-11-26T03:13:37.561Z,4.90
2022-11-26T03:16:10.669Z,4.90
2022-11-26T03:18:43.189Z,4.91
2022-11-26T03:21:15.977Z,4.88
2022-11-26T03:23:48.522Z,4.89
2022-11-26T03:26:21.101Z,4.87
2022-11-26T03:28:54.084Z,4.89
2022-11-26T03:31:26.641Z,4.91
2022-11-26T03:33:59.084Z,4.90
2022-11-26T03:36:31.685Z,4.93
2022-11-26T03:39:04.646Z,4.94
2022-11-26T03:41:37.147Z,4.90
2022-11-26T03:44:09.660Z,4.73
2022-11-26T03:46:42.289Z,4.60
2022-11-26T03:49:14.789Z,4.43
2022-11-26T03:51:47.301Z,4.29
2022-11-26T03:54:19.813Z,4.17
2022-11-26T03:56:52.289Z,4.12
2022-11-26T03:59:24.777Z,4.04
2022-11-26T04:01:57.343Z,3.99
2022-11-26T04:04:30.035Z,3.91
2022-11-26T04:07:02.758Z,3.90
2022-11-26T04:09:35.291Z,3.97
2022-11-26T04:12:08.112Z,4.02
2022-11-26T04:14:40.983Z,4.08
2022-11-26T04:17:13.736Z,4.10
2022-11-26T04:19:46.169Z,4.13
2022-11-26T04:22:18.694Z,4.16
2022-11-26T04:24:51.205Z,4.18
2022-11-26T04:27:23.694Z,4.17
2022-11-26T04:29:56.196Z,4.08
2022-11-26T04:32:28.761Z,4.04
2022-11-26T04:35:01.369Z,4.06
2022-11-26T04:37:33.845Z,4.07
2022-11-26T04:40:07.795Z,4.09
2022-11-26T04:42:40.296Z,4.08
2022-11-26T04:45:14.404Z,4.05
2022-11-26T04:47:46.873Z,4.07
2022-11-26T04:50:19.484Z,4.09
2022-11-26T04:52:52.124Z,4.11
2022-11-26T04:55:24.716Z,4.14
2022-11-26T04:57:57.208Z,4.12
2022-11-26T05:00:29.873Z,4.09
2022-11-26T05:03:02.419Z,4.04
2022-11-26T05:05:35.057Z,3.99
2022-11-26T05:08:08.135Z,3.93
2022-11-26T05:10:40.657Z,3.89
2022-11-26T05:13:13.181Z,3.87
2022-11-26T05:15:45.613Z,3.85
2022-11-26T05:18:18.542Z,3.83
2022-11-26T05:20:51.055Z,3.81
2022-11-26T05:23:23.533Z,3.79
2022-11-26T05:25:56.082Z,3.78
2022-11-26T05:28:28.768Z,3.76
2022-11-26T05:31:05.737Z,3.60
2022-11-26T05:33:38.269Z,3.46
2022-11-26T05:36:11.414Z,3.32
2022-11-26T05:38:43.965Z,3.19
2022-11-26T05:41:16.466Z,3.12
2022-11-26T05:43:48.941Z,3.04
2022-11-26T05:46:22.520Z,3.00
2022-11-26T05:48:55.073Z,3.01
2022-11-26T05:51:27.545Z,3.00
2022-11-26T05:54:00.099Z,3.03
2022-11-26T05:56:32.703Z,3.03
2022-11-26T05:59:05.167Z,3.03
2022-11-26T06:01:37.821Z,3.06
2022-11-26T06:04:10.315Z,3.05
2022-11-26T06:06:42.797Z,2.97
2022-11-26T06:09:15.433Z,2.89
2022-11-26T06:11:49.806Z,2.88
2022-11-26T06:14:22.308Z,2.87
2022-11-26T06:16:54.873Z,2.92
2022-11-26T06:19:27.569Z,2.99
2022-11-26T06:22:00.145Z,3.07
2022-11-26T06:24:32.668Z,3.14
2022-11-26T06:27:05.343Z,3.24
2022-11-26T06:29:37.881Z,3.34
2022-11-26T06:32:10.470Z,3.41
2022-11-26T06:34:44.236Z,3.49
2022-11-26T06:37:17.178Z,3.57
2022-11-26T06:39:49.679Z,3.64
2022-11-26T06:42:22.216Z,3.71
2022-11-26T06:44:59.467Z,3.76
2022-11-26T06:47:32.362Z,3.74
2022-11-26T06:50:10.571Z,3.67
2022-11-26T06:52:43.427Z,3.70
2022-11-26T06:55:15.949Z,3.76
2022-11-26T06:57:50.146Z,3.84
2022-11-26T07:00:23.763Z,3.92
2022-11-26T07:02:56.333Z,4.02
2022-11-26T07:05:28.963Z,4.10
2022-11-26T07:08:01.473Z,4.18
2022-11-26T07:10:33.956Z,4.25
2022-11-26T07:13:06.465Z,4.32
2022-11-26T07:15:39.031Z,4.36
2022-11-26T07:18:11.538Z,4.43
2022-11-26T07:20:44.213Z,4.48
2022-11-26T07:23:16.697Z,4.56
2022-11-26T07:25:49.188Z,4.64
2022-11-26T07:28:21.765Z,4.71
2022-11-26T07:30:54.289Z,4.78
2022-11-26T07:33:26.941Z,4.84
2022-11-26T07:36:02.185Z,4.87
2022-11-26T07:38:35.986Z,4.90
2022-11-26T07:41:10.377Z,4.88
2022-11-26T07:43:44.480Z,4.76
2022-11-26T07:46:19.155Z,4.62
2022-11-26T07:48:52.545Z,4.52
2022-11-26T07:51:26.951Z,4.52
2022-11-26T07:54:01.218Z,4.56
2022-11-26T07:56:33.777Z,4.56
2022-11-26T07:59:06.711Z,4.53
2022-11-26T08:01:39.625Z,4.47
2022-11-26T08:04:12.135Z,4.50
2022-11-26T08:06:44.648Z,4.52
2022-11-26T08:09:17.740Z,4.53
2022-11-26T08:11:50.352Z,4.52
2022-11-26T08:14:23.188Z,4.58
2022-11-26T08:16:55.808Z,4.59
2022-11-26T08:19:28.681Z,4.60
2022-11-26T08:22:03.385Z,4.63
2022-11-26T08:24:36.307Z,4.58
2022-11-26T08:27:09.196Z,4.56
2022-11-26T08:29:41.872Z,4.60
2022-11-26T08:32:14.541Z,4.69
2022-11-26T08:34:47.132Z,4.76
2022-11-26T08:37:19.661Z,4.83
2022-11-26T08:39:52.232Z,4.88
2022-11-26T08:42:24.867Z,4.93
2022-11-26T08:44:57.366Z,4.99
2022-11-26T08:47:29.900Z,5.05
2022-11-26T08:50:02.578Z,5.13
2022-11-26T08:52:35.155Z,5.20
2022-11-26T08:55:08.448Z,5.24
2022-11-26T08:57:40.909Z,5.28
2022-11-26T09:00:15.617Z,5.28
2022-11-26T09:02:48.182Z,5.21
2022-11-26T09:05:20.730Z,5.11
2022-11-26T09:07:53.516Z,5.07
2022-11-26T09:10:26.122Z,5.13
2022-11-26T09:12:58.704Z,5.18
2022-11-26T09:15:31.283Z,5.18
2022-11-26T09:18:04.249Z,5.27
2022-11-26T09:20:36.717Z,5.51
2022-11-26T09:23:09.246Z,5.79
2022-11-26T09:25:42.356Z,6.15
2022-11-26T09:28:15.401Z,6.52
2022-11-26T09:30:47.877Z,6.88
2022-11-26T09:33:20.382Z,7.19
2022-11-26T09:35:52.881Z,7.46
2022-11-26T09:38:25.518Z,7.75
2022-11-26T09:41:02.430Z,7.95
2022-11-26T09:43:53.244Z,8.19
2022-11-26T09:46:41.193Z,8.40
2022-11-26T09:49:30.037Z,8.56
2022-11-26T09:52:04.973Z,8.55
2022-11-26T09:54:39.655Z,8.59
2022-11-26T09:57:23.192Z,8.64
2022-11-26T09:59:57.453Z,8.81
2022-11-26T10:02:30.251Z,8.99
2022-11-26T10:05:04.440Z,8.98
2022-11-26T10:07:56.092Z,8.95
2022-11-26T10:10:37.239Z,8.97
2022-11-26T10:13:20.849Z,9.07
2022-11-26T10:16:05.572Z,9.17
2022-11-26T10:18:47.947Z,9.14
2022-11-26T10:21:37.806Z,9.22
2022-11-26T10:24:26.917Z,9.26
2022-11-26T10:27:03.011Z,9.14
2022-11-26T10:29:42.706Z,8.82
2022-11-26T10:32:26.453Z,8.72
2022-11-26T10:35:00.103Z,8.68
2022-11-26T10:37:33.126Z,8.62
2022-11-26T10:40:19.990Z,8.38
2022-11-26T10:43:02.721Z,8.20
2022-11-26T10:45:41.692Z,8.33
2022-11-26T10:48:25.011Z,8.35
2022-11-26T10:51:09.373Z,8.21
2022-11-26T10:53:55.965Z,8.14
2022-11-26T10:56:37.832Z,8.15
2022-11-26T10:59:25.231Z,8.28
2022-11-26T11:02:03.101Z,8.38
2022-11-26T11:04:40.707Z,8.44
2022-11-26T11:07:33.167Z,8.46
2022-11-26T11:10:16.757Z,8.46
2022-11-26T11:12:52.167Z,8.32
2022-11-26T11:15:28.681Z,8.00
2022-11-26T11:18:04.521Z,7.83
2022-11-26T11:20:40.604Z,7.72
2022-11-26T11:23:45.705Z,7.54
2022-11-26T11:26:23.976Z,7.26
2022-11-26T11:28:58.397Z,7.08
2022-11-26T11:31:46.230Z,6.89
2022-11-26T11:34:25.684Z,6.80
2022-11-26T11:37:08.693Z,6.78
2022-11-26T11:39:46.502Z,6.72
2022-11-26T11:42:28.522Z,6.68
2022-11-26T11:45:05.392Z,6.67
2022-11-26T11:47:44.252Z,6.65
2022-11-26T11:50:24.290Z,6.61
2022-11-26T11:53:09.057Z,6.65
2022-11-26T11:56:02.078Z,6.76
2022-11-26T11:59:02.448Z,6.84
2022-11-26T12:01:48.947Z,6.85
2022-11-26T12:04:37.004Z,6.82
2022-11-26T12:07:41.511Z,6.73
2022-11-26T12:10:24.321Z,6.69
2022-11-26T12:13:01.733Z,6.68
2022-11-26T12:15:43.107Z,6.76
2022-11-26T12:18:24.500Z,6.79
2022-11-26T12:21:01.772Z,6.77
2022-11-26T12:23:39.717Z,6.71
2022-11-26T12:26:19.085Z,6.70
2022-11-26T12:29:08.086Z,6.71
2022-11-26T12:31:46.916Z,6.70
2022-11-26T12:34:25.528Z,6.72
2022-11-26T12:37:03.257Z,6.73
2022-11-26T12:39:53.918Z,6.74
2022-11-26T12:42:31.744Z,6.70
2022-11-26T12:45:17.707Z,6.67
2022-11-26T12:47:56.691Z,6.59
2022-11-26T12:50:40.531Z,6.53
2022-11-26T12:53:26.588Z,6.55
2022-11-26T12:56:06.472Z,6.57
2022-11-26T12:58:54.054Z,6.54
2022-11-26T13:01:27.609Z,6.50
2022-11-26T13:04:36.219Z,6.52
2022-11-26T13:07:09.000Z,6.44
2022-11-26T13:10:03.108Z,6.37
2022-11-26T13:12:49.449Z,6.37
2022-11-26T13:15:27.800Z,6.39
2022-11-26T13:18:05.418Z,6.41
2022-11-26T13:20:52.065Z,6.38
2022-11-26T13:23:35.306Z,6.32
2022-11-26T13:26:24.949Z,6.33
2022-11-26T13:29:21.241Z,6.32
2022-11-26T13:32:16.596Z,6.31
2022-11-26T13:35:06.801Z,6.30
2022-11-26T13:37:56.378Z,6.26
2022-11-26T13:40:58.881Z,6.18
2022-11-26T13:44:14.244Z,6.14
2022-11-26T13:46:52.589Z,6.13
2022-11-26T13:49:33.041Z,6.09
2022-11-26T13:52:11.493Z,6.11
2022-11-26T13:54:48.620Z,6.15
2022-11-26T13:57:25.745Z,6.15
2022-11-26T14:00:00.156Z,6.18
2022-11-26T14:02:44.908Z,6.22
2022-11-26T14:05:19.228Z,6.21
2022-11-26T14:07:53.354Z,6.21
2022-11-26T14:10:45.136Z,6.17
2022-11-26T14:13:18.457Z,6.13
2022-11-26T14:16:00.570Z,6.09
2022-11-26T14:19:01.929Z,6.00
2022-11-26T14:21:54.548Z,5.90
2022-11-26T14:24:56.343Z,5.89
2022-11-26T14:27:32.703Z,5.79
2022-11-26T14:30:33.169Z,5.70
2022-11-26T14:33:15.336Z,5.65
2022-11-26T14:35:58.746Z,5.60
2022-11-26T14:38:35.524Z,5.53
2022-11-26T14:41:08.196Z,5.46
2022-11-26T14:43:40.757Z,5.42
2022-11-26T14:46:19.058Z,5.40
2022-11-26T14:48:59.609Z,5.39
2022-11-26T14:51:33.581Z,5.34
2022-11-26T14:54:08.676Z,5.27
2022-11-26T14:56:46.371Z,5.25
2022-11-26T14:59:20.496Z,5.27
2022-11-26T15:01:54.203Z,5.27
2022-11-26T15:04:29.029Z,5.26
2022-11-26T15:07:02.120Z,5.16
2022-11-26T15:09:35.388Z,5.02
2022-11-26T15:12:16.192Z,5.01
2022-11-26T15:14:54.745Z,4.99
2022-11-26T15:17:30.704Z,4.96
2022-11-26T15:20:10.109Z,4.92
2022-11-26T15:22:49.474Z,4.94
2022-11-26T15:25:25.330Z,4.98
2022-11-26T15:28:01.494Z,5.01
2022-11-26T15:30:36.924Z,4.93
2022-11-26T15:33:15.830Z,4.89
2022-11-26T15:35:50.613Z,4.90
2022-11-26T15:38:25.396Z,4.82
2022-11-26T15:41:04.890Z,4.76
2022-11-26T15:43:43.873Z,4.80
2022-11-26T15:46:20.067Z,4.85
2022-11-26T15:48:55.937Z,4.89
2022-11-26T15:51:36.055Z,4.91
2022-11-26T15:54:21.804Z,4.84
2022-11-26T15:56:57.166Z,4.79
2022-11-26T15:59:34.453Z,4.77
2022-11-26T16:02:18.864Z,4.70
2022-11-26T16:04:54.614Z,4.64
2022-11-26T16:07:30.644Z,4.66
2022-11-26T16:10:35.722Z,4.66
2022-11-26T16:13:28.479Z,4.67
2022-11-26T16:16:06.937Z,4.61
2022-11-26T16:18:45.503Z,4.52
2022-11-26T16:21:24.394Z,4.55
2022-11-26T16:24:02.034Z,4.59
2022-11-26T16:26:52.985Z,4.53
2022-11-26T16:29:26.344Z,4.52
2022-11-26T16:31:59.290Z,4.51
2022-11-26T16:34:31.972Z,4.51
2022-11-26T16:37:19.545Z,4.56
2022-11-26T16:39:53.617Z,4.62
2022-11-26T16:42:26.830Z,4.66
2022-11-26T16:45:03.965Z,4.61
2022-11-26T16:47:41.304Z,4.55
2022-11-26T16:50:20.377Z,4.53
2022-11-26T16:52:53.318Z,4.49
2022-11-26T16:55:28.406Z,4.44
2022-11-26T16:58:02.661Z,4.33
2022-11-26T17:00:37.037Z,4.22
2022-11-26T17:03:13.084Z,4.14
2022-11-26T17:05:47.188Z,4.15
2022-11-26T17:08:19.795Z,4.21
2022-11-26T17:10:52.501Z,4.31
2022-11-26T17:13:25.755Z,4.43
2022-11-26T17:15:59.309Z,4.53
2022-11-26T17:18:33.196Z,4.62
2022-11-26T17:21:06.488Z,4.72
2022-11-26T17:23:40.427Z,4.81
2022-11-26T17:26:20.878Z,4.87
2022-11-26T17:28:53.772Z,4.91
2022-11-26T17:31:26.996Z,4.89
2022-11-26T17:33:59.869Z,4.92
2022-11-26T17:36:36.952Z,4.89
2022-11-26T17:39:12.934Z,4.94
2022-11-26T17:41:45.496Z,5.02
2022-11-26T17:44:18.624Z,5.10
2022-11-26T17:47:15.959Z,5.13
2022-11-26T17:49:43.884Z,5.14
2022-11-26T17:52:16.733Z,5.08
2022-11-26T17:54:49.373Z,5.00
2022-11-26T17:57:22.981Z,4.98
2022-11-26T17:59:56.141Z,4.94
2022-11-26T18:02:28.814Z,4.85
2022-11-26T18:05:01.341Z,4.83
2022-11-26T18:07:34.037Z,4.81
2022-11-26T18:10:09.507Z,4.79
2022-11-26T18:12:43.272Z,4.77
2022-11-26T18:15:24.132Z,4.77
2022-11-26T18:17:58.281Z,4.73
2022-11-26T18:20:32.051Z,4.77
2022-11-26T18:23:04.744Z,4.85
2022-11-26T18:25:37.339Z,4.88
2022-11-26T18:28:09.918Z,4.89
2022-11-26T18:30:43.072Z,4.87
2022-11-26T18:33:17.150Z,4.86
2022-11-26T18:35:53.443Z,4.87
2022-11-26T18:38:29.132Z,4.89
2022-11-26T18:41:06.637Z,4.97
2022-11-26T18:43:40.642Z,5.03
2022-11-26T18:46:16.965Z,5.08
2022-11-26T18:48:51.190Z,5.13
2022-11-26T18:51:24.416Z,5.18
2022-11-26T18:53:56.951Z,5.21
2022-11-26T18:56:29.648Z,5.27
2022-11-26T18:59:02.480Z,5.29
2022-11-26T19:01:35.678Z,5.27
2022-11-26T19:04:08.351Z,5.29
2022-11-26T19:06:42.034Z,5.26
2022-11-26T19:09:19.263Z,5.25
2022-11-26T19:11:54.272Z,5.25
2022-11-26T19:14:28.630Z,5.23
2022-11-26T19:17:04.383Z,5.26
2022-11-26T19:19:38.725Z,5.32
2022-11-26T19:22:11.789Z,5.35
2022-11-26T19:24:44.572Z,5.33
2022-11-26T19:27:17.353Z,5.35
2022-11-26T19:29:50.093Z,5.35
2022-11-26T19:32:22.808Z,5.37
2022-11-26T19:34:55.435Z,5.40
2022-11-26T19:37:28.003Z,5.43
2022-11-26T19:40:00.712Z,5.44
2022-11-26T19:42:34.845Z,5.45
2022-11-26T19:45:08.434Z,5.47
2022-11-26T19:47:41.176Z,5.51
2022-11-26T19:50:14.358Z,5.56
2022-11-26T19:52:48.467Z,5.58
2022-11-26T19:55:23.097Z,5.62
2022-11-26T19:57:55.706Z,5.62
2022-11-26T20:00:28.380Z,5.62
2022-11-26T20:03:01.516Z,5.64
2022-11-26T20:05:34.375Z,5.69
2022-11-26T20:08:08.261Z,5.76
2022-11-26T20:10:43.568Z,5.82
2022-11-26T20:13:18.427Z,5.84
2022-11-26T20:15:50.884Z,5.87
2022-11-26T20:18:23.484Z,5.88
2022-11-26T20:21:03.180Z,5.88
2022-11-26T20:23:35.781Z,5.87
2022-11-26T20:26:17.824Z,5.88
2022-11-26T20:28:51.113Z,5.91
2022-11-26T20:31:24.770Z,5.94
2022-11-26T20:33:58.053Z,6.00
2022-11-26T20:36:30.748Z,6.00
2022-11-26T20:39:04.364Z,6.00
2022-11-26T20:41:37.302Z,6.00
2022-11-26T20:44:10.463Z,6.00
2022-11-26T20:46:43.434Z,6.04
2022-11-26T20:49:16.316Z,6.07
2022-11-26T20:51:49.909Z,6.10
2022-11-26T20:54:22.574Z,6.13
2022-11-26T20:56:55.049Z,6.17
2022-11-26T20:59:28.186Z,6.18
2022-11-26T21:02:02.245Z,6.18
2022-11-26T21:04:35.088Z,6.17
2022-11-26T21:07:07.841Z,6.17
2022-11-26T21:09:41.163Z,6.18
2022-11-26T21:12:13.889Z,6.19
2022-11-26T21:14:46.780Z,6.19
2022-11-26T21:17:19.795Z,6.20
2022-11-26T21:19:52.695Z,6.23
2022-11-26T21:22:25.896Z,6.28
2022-11-26T21:24:59.199Z,6.34
2022-11-26T21:27:34.062Z,6.40
2022-11-26T21:30:11.472Z,6.44
2022-11-26T21:32:45.135Z,6.45
2022-11-26T21:35:18.471Z,6.46
2022-11-26T21:37:51.800Z,6.47
2022-11-26T21:40:24.895Z,6.51
2022-11-26T21:42:57.926Z,6.55
2022-11-26T21:45:30.904Z,6.55
2022-11-26T21:48:05.021Z,6.56
2022-11-26T21:50:38.061Z,6.58
2022-11-26T21:53:11.729Z,6.61
2022-11-26T21:55:45.364Z,6.66
2022-11-26T21:58:17.976Z,6.69
2022-11-26T22:00:51.074Z,6.69
2022-11-26T22:03:23.714Z,6.66
2022-11-26T22:05:59.257Z,6.64
2022-11-26T22:08:32.303Z,6.65
2022-11-26T22:11:11.145Z,6.66
2022-11-26T22:13:44.348Z,6.66
2022-11-26T22:16:18.837Z,6.64
2022-11-26T22:18:52.339Z,6.65
2022-11-26T22:21:29.285Z,6.64
2022-11-26T22:24:03.447Z,6.63
2022-11-26T22:26:37.314Z,6.58
2022-11-26T22:29:12.169Z,6.57
2022-11-26T22:31:45.326Z,6.58
2022-11-26T22:34:22.153Z,6.59
2022-11-26T22:36:55.028Z,6.55
2022-11-26T22:39:27.599Z,6.54
2022-11-26T22:42:02.156Z,6.54
2022-11-26T22:44:37.278Z,6.54
2022-11-26T22:47:12.368Z,6.55
2022-11-26T22:49:44.997Z,6.56
2022-11-26T22:52:17.680Z,6.58
2022-11-26T22:54:50.346Z,6.59
2022-11-26T22:57:25.510Z,6.58
2022-11-26T22:59:58.487Z,6.58
2022-11-26T23:02:31.236Z,6.61
2022-11-26T23:05:03.921Z,6.67
2022-11-26T23:07:37.898Z,6.71
2022-11-26T23:10:12.265Z,6.73
2022-11-26T23:12:44.846Z,6.73
2022-11-26T23:15:17.480Z,6.73
2022-11-26T23:17:50.108Z,6.73
2022-11-26T23:20:22.964Z,6.74
2022-11-26T23:22:56.140Z,6.74
2022-11-26T23:25:28.530Z,6.73
2022-11-26T23:28:01.250Z,6.73
2022-11-26T23:30:34.144Z,6.73
2022-11-26T23:33:06.743Z,6.72
2022-11-26T23:35:39.429Z,6.71
2022-11-26T23:38:11.913Z,6.70
2022-11-26T23:40:44.438Z,6.69
2022-11-26T23:43:17.462Z,6.69
2022-11-26T23:45:51.379Z,6.70
2022-11-26T23:48:24.125Z,6.67
2022-11-26T23:50:56.692Z,6.67
2022-11-26T23:53:29.950Z,6.65
2022-11-26T23:56:08.192Z,6.62
2022-11-26T23:58:41.221Z,6.62
